createdAt,value
2023-01-30T00:04:12.581Z,2.81
2023-01-30T00:14:15.870Z,2.41
2023-01-30T00:24:19.108Z,3.29
2023-01-30T00:34:21.264Z,3.04
2023-01-30T00:44:41.933Z,2.84
2023-01-30T00:54:44.234Z,3.02
2023-01-30T01:04:46.486Z,2.94
2023-01-30T01:14:48.800Z,3.42
2023-01-30T01:24:51.205Z,2.98
2023-01-30T01:34:53.500Z,3.43
2023-01-30T01:45:02.469Z,3.29
2023-01-30T01:55:07.515Z,3.46
2023-01-30T02:05:11.435Z,3.22
2023-01-30T02:15:14.095Z,3.22
2023-01-30T02:26:04.405Z,3.71
2023-01-30T02:36:30.245Z,2.84
2023-01-30T02:46:36.227Z,3.50
2023-01-30T02:56:44.853Z,3.89
2023-01-30T03:07:45.116Z,3.85
2023-01-30T03:17:47.841Z,3.47
2023-01-30T03:27:54.039Z,4.08
2023-01-30T03:37:58.456Z,4.15
2023-01-30T03:48:00.754Z,4.08
2023-01-30T03:58:03.019Z,4.24
2023-01-30T04:08:08.101Z,4.00
2023-01-30T04:18:10.896Z,3.79
2023-01-30T04:28:24.036Z,4.24
2023-01-30T04:38:29.696Z,4.29
2023-01-30T04:48:32.461Z,3.77
2023-01-30T04:58:36.962Z,4.15
2023-01-30T05:08:39.250Z,4.28
2023-01-30T05:18:42.005Z,5.14
2023-01-30T05:28:44.131Z,4.62
2023-01-30T05:38:46.530Z,4.56
2023-01-30T05:48:48.730Z,4.98
2023-01-30T05:58:52.401Z,5.37
2023-01-30T06:08:55.642Z,5.56
2023-01-30T06:18:57.918Z,5.03
2023-01-30T06:28:59.989Z,5.31
2023-01-30T06:39:02.095Z,6.08
2023-01-30T06:49:04.406Z,5.39
2023-01-30T06:59:06.720Z,5.51
2023-01-30T07:09:08.812Z,5.99
2023-01-30T07:19:11.200Z,5.65
2023-01-30T07:29:13.443Z,5.92
2023-01-30T07:39:15.569Z,5.98
2023-01-30T07:49:17.827Z,5.78
2023-01-30T07:59:20.114Z,5.35
2023-01-30T08:09:22.167Z,5.65
2023-01-30T08:19:24.434Z,6.36
2023-01-30T08:29:26.518Z,5.55
2023-01-30T08:39:28.639Z,5.92
2023-01-30T08:49:30.954Z,6.40
2023-01-30T08:59:33.080Z,5.94
2023-01-30T09:09:35.551Z,6.36
2023-01-30T09:19:37.734Z,5.84
2023-01-30T09:29:39.990Z,5.56
2023-01-30T09:39:42.115Z,6.31
2023-01-30T09:50:21.275Z,5.86
2023-01-30T10:00:43.622Z,5.39
2023-01-30T10:11:08.160Z,5.64
2023-01-30T10:21:20.257Z,6.40
2023-01-30T10:31:24.916Z,6.24
2023-01-30T10:41:35.243Z,5.85
2023-01-30T10:51:40.019Z,5.95
2023-01-30T11:01:51.937Z,6.15
2023-01-30T11:11:55.568Z,6.28
2023-01-30T11:22:02.729Z,6.35
2023-01-30T11:32:12.222Z,5.62
2023-01-30T11:42:14.645Z,6.47
2023-01-30T11:52:18.225Z,6.03
2023-01-30T12:02:24.439Z,6.29
2023-01-30T12:12:44.288Z,5.94
2023-01-30T12:23:12.017Z,6.67
2023-01-30T12:43:40.452Z,6.61
2023-01-30T12:53:57.829Z,7.00
2023-01-30T13:04:18.642Z,6.60
2023-01-30T13:14:37.332Z,6.87
2023-01-30T13:24:55.946Z,6.38
2023-01-30T13:34:59.552Z,7.16
2023-01-30T13:45:02.132Z,7.11
2023-01-30T13:55:15.372Z,7.24
2023-01-30T14:05:52.756Z,7.05
2023-01-30T14:15:57.508Z,7.05
2023-01-30T14:26:00.156Z,6.72
2023-01-30T14:36:02.199Z,7.53
2023-01-30T14:46:20.121Z,6.97
2023-01-30T14:56:47.802Z,6.61
2023-01-30T15:06:49.983Z,6.27
2023-01-30T15:16:59.361Z,6.10
2023-01-30T15:28:00.420Z,6.74
2023-01-30T15:38:02.550Z,6.65
2023-01-30T15:48:42.465Z,6.43
2023-01-30T15:58:44.943Z,6.76
2023-01-30T16:08:56.342Z,7.23
2023-01-30T16:19:05.180Z,6.95
2023-01-30T16:29:11.367Z,6.82
2023-01-30T16:39:34.949Z,6.70
2023-01-30T16:49:37.078Z,6.65
2023-01-30T16:59:40.451Z,7.31
2023-01-30T17:09:45.913Z,7.24
2023-01-30T17:19:48.854Z,6.43
2023-01-30T17:29:51.051Z,7.63
2023-01-30T17:39:53.368Z,6.81
2023-01-30T17:49:55.725Z,6.64
2023-01-30T17:59:57.997Z,6.73
2023-01-30T18:10:00.104Z,6.21
2023-01-30T18:20:03.646Z,6.90
2023-01-30T18:30:06.341Z,6.36
2023-01-30T18:40:09.469Z,6.53
2023-01-30T18:50:11.800Z,6.27
2023-01-30T19:00:16.464Z,5.78
2023-01-30T19:10:20.471Z,5.86
2023-01-30T19:20:24.119Z,6.01
2023-01-30T19:30:27.072Z,6.27
2023-01-30T19:40:29.317Z,5.54
2023-01-30T19:50:32.866Z,5.36
2023-01-30T20:00:35.073Z,6.12
2023-01-30T20:10:37.445Z,6.20
2023-01-30T20:20:39.597Z,6.41
2023-01-30T20:30:42.007Z,6.20
2023-01-30T20:40:44.134Z,5.72
2023-01-30T20:50:46.572Z,5.66
2023-01-30T21:00:48.693Z,5.57
2023-01-30T21:10:50.818Z,5.98
2023-01-30T21:20:53.043Z,6.04
2023-01-30T21:30:55.456Z,5.54
2023-01-30T21:41:16.390Z,6.20
2023-01-30T21:51:18.671Z,4.99
2023-01-30T22:01:21.079Z,5.73
2023-01-30T22:11:23.596Z,5.89
2023-01-30T22:21:28.085Z,6.26
2023-01-30T22:31:36.327Z,5.57
2023-01-30T22:41:38.695Z,5.52
2023-01-30T22:51:41.319Z,5.58
2023-01-30T23:01:46.055Z,5.61
2023-01-30T23:12:10.030Z,5.13
2023-01-30T23:22:12.156Z,5.75
2023-01-30T23:32:15.027Z,5.76
2023-01-30T23:42:17.198Z,5.39
2023-01-30T23:52:19.359Z,5.64
